Normandy, Florida
Current Conditions -  °F | °C
As of 3:53 AM on Friday 24 Oct 2014 (Local Time) from KMIA Reporting Station
Overcast Overcast  
Wind Chill: 78°   Ceiling: 2800
Heat Index: 80°   Visibility: 10mi
Dew Point: 69°   Wind: 10mph
Humidity: 74%   Direction: 50°NE
Pressure: 29.83"   Gusts: NA
Location:  25.8619°N, 80.1259°W
Report Text: KMIA 240753Z 05009KT 10SM BKN028 OVC036 26/21 A2983 RMK AO2 SLP101 CB DSNT E-SE 98058 T02560206
Loading
Personal Weather Stations






























Interactive Weather Map
Tropical Storm Tracking
New forecast layout! Learn more

10-Day Weather Forecast

Advertisements
Track Severe Weather on mobile